createdAt,value
2019-06-10T00:01:33.013Z,20.40
2019-06-10T00:03:38.628Z,20.40
2019-06-10T00:05:44.149Z,20.20
2019-06-10T00:07:51.579Z,20.20
2019-06-10T00:09:58.088Z,20.30
2019-06-10T00:12:06.443Z,20.30
2019-06-10T00:14:12.445Z,20.30
2019-06-10T00:16:17.986Z,20.30
2019-06-10T00:18:38.306Z,20.20
2019-06-10T00:20:30.696Z,20.20
2019-06-10T00:22:36.245Z,20.20
2019-06-10T00:24:41.831Z,20.20
2019-06-10T00:26:50.866Z,20.20
2019-06-10T00:28:55.976Z,20.20
2019-06-10T00:31:03.678Z,20.10
2019-06-10T00:33:11.599Z,20.00
2019-06-10T00:35:15.900Z,20.00
2019-06-10T00:37:21.432Z,20.00
2019-06-10T00:39:26.970Z,20.00
2019-06-10T00:41:32.511Z,20.00
2019-06-10T00:43:38.031Z,20.00
2019-06-10T00:45:43.567Z,19.90
2019-06-10T00:47:52.063Z,19.90
2019-06-10T00:49:56.245Z,19.90
2019-06-10T00:52:03.964Z,19.90
2019-06-10T00:54:12.782Z,19.90
2019-06-10T00:56:16.173Z,19.80
2019-06-10T00:58:21.884Z,19.90
2019-06-10T01:00:27.341Z,19.90
2019-06-10T01:02:33.934Z,19.90
2019-06-10T01:04:40.738Z,19.80
2019-06-10T01:06:46.477Z,19.90
2019-06-10T01:08:52.075Z,19.80
2019-06-10T01:10:57.612Z,19.80
2019-06-10T01:13:03.465Z,19.80
2019-06-10T01:15:09.967Z,19.80
2019-06-10T01:17:16.280Z,19.80
2019-06-10T01:19:22.031Z,19.80
2019-06-10T01:21:27.679Z,19.70
2019-06-10T01:23:33.221Z,19.70
2019-06-10T01:25:38.739Z,19.70
2019-06-10T01:27:44.334Z,19.70
2019-06-10T01:29:51.111Z,19.70
2019-06-10T01:31:56.722Z,19.70
2019-06-10T01:34:02.236Z,19.70
2019-06-10T01:36:07.789Z,19.70
2019-06-10T01:38:16.216Z,19.60
2019-06-10T01:40:20.901Z,19.60
2019-06-10T01:42:26.489Z,19.60
2019-06-10T01:44:32.013Z,19.60
2019-06-10T01:46:37.544Z,19.50
2019-06-10T01:48:47.861Z,19.50
2019-06-10T01:50:51.241Z,19.50
2019-06-10T01:52:56.936Z,19.50
2019-06-10T01:55:02.496Z,19.50
2019-06-10T01:57:08.006Z,19.40
2019-06-10T01:59:15.169Z,19.40
2019-06-10T02:01:23.437Z,19.40
2019-06-10T02:03:31.434Z,19.30
2019-06-10T02:05:36.350Z,19.40
2019-06-10T02:07:41.885Z,19.40
2019-06-10T02:09:47.411Z,19.40
2019-06-10T02:11:53.032Z,19.30
2019-06-10T02:14:00.806Z,19.30
2019-06-10T02:16:05.873Z,19.30
2019-06-10T02:18:13.528Z,19.30
2019-06-10T02:20:22.573Z,19.30
2019-06-10T02:22:25.896Z,19.30
2019-06-10T02:24:31.728Z,19.40
2019-06-10T02:26:37.282Z,19.30
2019-06-10T02:28:42.805Z,19.30
2019-06-10T02:30:51.969Z,19.30
2019-06-10T02:32:55.569Z,19.30
2019-06-10T02:35:08.821Z,19.30
2019-06-10T02:37:08.425Z,19.30
2019-06-10T02:39:21.439Z,19.30
2019-06-10T02:41:31.078Z,19.20
2019-06-10T02:43:35.792Z,19.20
2019-06-10T02:45:37.811Z,19.20
2019-06-10T02:47:44.302Z,19.30
2019-06-10T02:50:01.513Z,19.20
2019-06-10T02:51:57.381Z,19.20
2019-06-10T02:54:04.768Z,19.30
2019-06-10T02:56:12.445Z,19.20
2019-06-10T02:58:19.152Z,19.10
2019-06-10T03:00:36.836Z,19.20
2019-06-10T03:02:36.066Z,19.20
2019-06-10T03:04:39.087Z,19.20
2019-06-10T03:06:45.141Z,19.10
2019-06-10T03:08:54.606Z,19.20
2019-06-10T03:10:57.994Z,19.30
2019-06-10T03:13:03.786Z,19.30
2019-06-10T03:15:09.432Z,19.30
2019-06-10T03:17:17.719Z,19.30
2019-06-10T03:19:38.396Z,19.40
2019-06-10T03:21:32.315Z,19.40
2019-06-10T03:23:37.551Z,19.30
2019-06-10T03:25:44.141Z,19.30
2019-06-10T03:27:49.734Z,19.30
2019-06-10T03:29:55.280Z,19.30
2019-06-10T03:32:04.559Z,19.30
2019-06-10T03:34:07.962Z,19.30
2019-06-10T03:36:13.498Z,19.30
2019-06-10T03:38:20.317Z,19.20
2019-06-10T03:40:27.644Z,19.20
2019-06-10T03:42:33.414Z,19.20
2019-06-10T03:44:38.928Z,19.30
2019-06-10T03:46:44.459Z,19.30
2019-06-10T03:48:52.471Z,19.30
2019-06-10T03:50:57.160Z,19.30
2019-06-10T03:53:04.369Z,19.30
2019-06-10T03:55:12.243Z,19.30
2019-06-10T03:57:17.533Z,19.30
2019-06-10T03:59:24.652Z,19.30
2019-06-10T04:01:30.247Z,19.30
2019-06-10T04:03:35.902Z,19.40
2019-06-10T04:05:42.333Z,19.40
2019-06-10T04:07:48.072Z,19.40
2019-06-10T04:09:53.607Z,19.40
2019-06-10T04:11:59.137Z,19.50
2019-06-10T04:14:04.826Z,19.50
2019-06-10T04:16:12.786Z,19.60
2019-06-10T04:18:17.883Z,19.60
2019-06-10T04:20:27.489Z,19.60
2019-06-10T04:22:32.803Z,19.60
2019-06-10T04:24:37.740Z,19.60
2019-06-10T04:26:43.655Z,19.70
2019-06-10T04:28:49.316Z,19.70
2019-06-10T04:30:54.844Z,19.70
2019-06-10T04:33:02.303Z,19.70
2019-06-10T04:35:08.065Z,19.70
2019-06-10T04:37:13.603Z,19.70
2019-06-10T04:39:20.413Z,19.70
2019-06-10T04:41:27.712Z,19.70
2019-06-10T04:43:33.444Z,19.80
2019-06-10T04:45:39.056Z,19.80
2019-06-10T04:47:44.569Z,19.90
2019-06-10T04:49:52.139Z,19.90
2019-06-10T04:51:57.376Z,20.00
2019-06-10T04:54:03.331Z,20.00
2019-06-10T04:56:08.857Z,20.10
2019-06-10T04:58:14.468Z,20.10
2019-06-10T05:00:23.469Z,20.10
2019-06-10T05:02:28.943Z,20.20
2019-06-10T05:04:34.693Z,20.20
2019-06-10T05:06:42.234Z,20.20
2019-06-10T05:08:47.397Z,20.30
2019-06-10T05:10:53.025Z,20.30
2019-06-10T05:12:58.638Z,20.40
2019-06-10T05:15:07.447Z,20.50
2019-06-10T05:17:14.049Z,20.50
2019-06-10T05:19:19.856Z,20.50
2019-06-10T05:21:28.012Z,20.60
2019-06-10T05:23:33.107Z,20.70
2019-06-10T05:25:38.890Z,20.60
2019-06-10T05:27:44.446Z,20.80
2019-06-10T05:29:49.971Z,20.80
2019-06-10T05:31:55.507Z,20.90
2019-06-10T05:34:02.399Z,21.00
2019-06-10T05:36:08.088Z,21.00
2019-06-10T05:38:13.615Z,21.10
2019-06-10T05:40:19.317Z,21.10
2019-06-10T05:42:26.094Z,21.20
2019-06-10T05:44:34.422Z,21.30
2019-06-10T05:46:39.198Z,21.40
2019-06-10T05:48:44.721Z,21.60
2019-06-10T05:51:00.091Z,21.60
2019-06-10T05:52:57.410Z,21.80
2019-06-10T05:55:03.058Z,21.80
2019-06-10T05:57:08.533Z,21.90
2019-06-10T05:59:14.088Z,21.90
2019-06-10T06:01:19.602Z,21.90
2019-06-10T06:03:25.704Z,22.10
2019-06-10T06:05:33.277Z,22.30
2019-06-10T06:07:38.450Z,22.30
2019-06-10T06:09:43.994Z,22.50
2019-06-10T06:11:49.535Z,22.70
2019-06-10T06:13:55.079Z,22.90
2019-06-10T06:16:03.040Z,23.10
2019-06-10T06:18:10.589Z,23.30
2019-06-10T06:20:15.684Z,23.50
2019-06-10T06:22:22.111Z,23.70
2019-06-10T06:24:27.752Z,24.00
2019-06-10T06:26:36.496Z,24.20
2019-06-10T06:28:43.000Z,24.40
2019-06-10T06:30:47.649Z,24.50
2019-06-10T06:32:53.350Z,24.70
2019-06-10T06:34:58.890Z,24.90
2019-06-10T06:37:04.583Z,25.00
2019-06-10T06:39:12.652Z,25.10
2019-06-10T06:41:17.407Z,25.30
2019-06-10T06:43:22.944Z,25.40
2019-06-10T06:45:29.632Z,25.60
2019-06-10T06:47:36.087Z,25.50
2019-06-10T06:49:43.437Z,25.40
2019-06-10T06:51:55.195Z,25.40
2019-06-10T06:53:56.553Z,25.60
2019-06-10T06:56:03.679Z,25.80
2019-06-10T06:58:09.217Z,26.00
2019-06-10T07:00:41.069Z,26.30
2019-06-10T07:02:23.029Z,26.20
2019-06-10T07:04:29.647Z,26.50
2019-06-10T07:06:37.120Z,26.40
2019-06-10T07:09:00.357Z,26.60
2019-06-10T07:10:54.413Z,26.80
2019-06-10T07:13:05.853Z,26.50
2019-06-10T07:15:12.842Z,26.40
2019-06-10T07:17:18.356Z,26.70
2019-06-10T07:19:23.887Z,26.70
2019-06-10T07:21:29.494Z,26.90
2019-06-10T07:23:38.872Z,27.00
2019-06-10T07:25:46.522Z,26.90
2019-06-10T07:27:49.349Z,26.80
2019-06-10T07:29:54.870Z,27.00
2019-06-10T07:32:03.204Z,27.00
2019-06-10T07:34:07.555Z,27.10
2019-06-10T07:36:14.226Z,27.10
2019-06-10T07:38:22.312Z,27.20
2019-06-10T07:40:26.929Z,27.00
2019-06-10T07:42:33.253Z,27.10
2019-06-10T07:44:39.607Z,27.30
2019-06-10T07:46:45.677Z,27.40
2019-06-10T07:48:55.693Z,27.60
2019-06-10T07:50:58.425Z,27.90
2019-06-10T07:53:03.952Z,28.20
2019-06-10T07:55:09.605Z,28.40
2019-06-10T07:57:15.128Z,28.70
2019-06-10T07:59:23.182Z,29.00
2019-06-10T08:01:27.868Z,29.00
2019-06-10T08:03:35.316Z,29.00
2019-06-10T08:05:43.239Z,28.90
2019-06-10T08:07:49.009Z,28.50
2019-06-10T08:09:54.705Z,28.00
2019-06-10T08:12:03.487Z,27.70
2019-06-10T08:14:07.463Z,28.10
2019-06-10T08:16:13.399Z,28.00
2019-06-10T08:18:22.396Z,28.10
2019-06-10T08:20:45.604Z,28.20
2019-06-10T08:22:55.205Z,28.30
2019-06-10T08:24:57.484Z,28.70
2019-06-10T08:27:03.032Z,29.00
2019-06-10T08:29:08.571Z,29.40
2019-06-10T08:31:14.087Z,29.70
2019-06-10T08:33:22.451Z,29.50
2019-06-10T08:35:38.322Z,29.40
2019-06-10T08:37:33.907Z,29.70
2019-06-10T08:39:40.203Z,29.80
2019-06-10T08:41:49.091Z,29.80
2019-06-10T08:43:53.913Z,29.90
2019-06-10T08:46:02.572Z,30.00
2019-06-10T08:48:07.676Z,30.00
2019-06-10T08:50:13.468Z,30.10
2019-06-10T08:52:19.065Z,30.10
2019-06-10T08:54:24.622Z,30.10
2019-06-10T08:56:32.583Z,30.40
2019-06-10T08:58:38.482Z,30.60
2019-06-10T09:00:46.631Z,30.60
2019-06-10T09:02:53.911Z,30.80
2019-06-10T09:04:59.114Z,30.80
2019-06-10T09:07:04.821Z,30.70
2019-06-10T09:09:12.897Z,30.60
2019-06-10T09:11:21.178Z,30.30
2019-06-10T09:13:26.103Z,30.40
2019-06-10T09:15:32.483Z,30.30
2019-06-10T09:17:39.709Z,30.20
2019-06-10T09:19:48.808Z,30.30
2019-06-10T09:21:56.397Z,30.50
2019-06-10T09:24:03.788Z,30.30
2019-06-10T09:26:07.955Z,29.90
2019-06-10T09:28:13.476Z,30.30
2019-06-10T09:30:22.682Z,30.50
2019-06-10T09:32:28.800Z,30.50
2019-06-10T09:34:34.328Z,30.60
2019-06-10T09:36:41.196Z,30.70
2019-06-10T09:38:49.098Z,30.80
2019-06-10T09:41:01.271Z,31.00
2019-06-10T09:43:02.467Z,31.00
2019-06-10T09:45:12.826Z,30.90
2019-06-10T09:47:18.122Z,31.10
2019-06-10T09:49:25.574Z,31.50
2019-06-10T09:51:32.373Z,31.30
2019-06-10T09:53:42.774Z,31.10
2019-06-10T09:55:49.101Z,30.90
2019-06-10T09:57:59.769Z,30.50
2019-06-10T10:00:03.082Z,30.50
2019-06-10T10:02:08.253Z,30.30
2019-06-10T10:04:14.245Z,30.40
2019-06-10T10:06:19.754Z,30.70
2019-06-10T10:08:25.439Z,30.90
2019-06-10T10:10:36.464Z,30.60
2019-06-10T10:12:44.419Z,30.40
2019-06-10T10:14:51.228Z,30.10
2019-06-10T10:17:00.321Z,30.20
2019-06-10T10:19:05.299Z,30.40
2019-06-10T10:21:13.059Z,30.40
2019-06-10T10:23:18.553Z,30.60
2019-06-10T10:25:24.095Z,30.90
2019-06-10T10:27:32.180Z,31.10
2019-06-10T10:29:36.806Z,31.10
2019-06-10T10:31:45.035Z,31.20
2019-06-10T10:33:50.575Z,30.90
2019-06-10T10:35:56.276Z,30.60
2019-06-10T10:38:03.903Z,30.80
2019-06-10T10:40:09.202Z,30.70
2019-06-10T10:42:14.745Z,30.70
2019-06-10T10:44:20.276Z,30.90
2019-06-10T10:46:25.831Z,31.10
2019-06-10T10:48:34.077Z,31.10
2019-06-10T10:50:38.541Z,30.90
2019-06-10T10:52:46.120Z,30.80
2019-06-10T10:54:54.011Z,30.80
2019-06-10T10:56:59.330Z,30.80
2019-06-10T10:59:05.160Z,30.80
2019-06-10T11:01:14.578Z,30.80
2019-06-10T11:03:18.351Z,30.70
2019-06-10T11:05:34.993Z,30.80
2019-06-10T11:07:42.313Z,31.00
2019-06-10T11:09:50.235Z,31.10
2019-06-10T11:11:58.406Z,31.00
2019-06-10T11:14:04.324Z,31.00
2019-06-10T11:16:09.851Z,31.00
2019-06-10T11:18:19.529Z,31.20
2019-06-10T11:20:25.060Z,31.30
2019-06-10T11:22:32.745Z,30.90
2019-06-10T11:24:42.054Z,31.00
2019-06-10T11:26:45.785Z,31.00
2019-06-10T11:28:54.411Z,30.80
2019-06-10T11:30:58.770Z,30.80
2019-06-10T11:33:04.529Z,30.50
2019-06-10T11:35:12.175Z,30.30
2019-06-10T11:37:17.813Z,30.40
2019-06-10T11:39:23.336Z,30.30
2019-06-10T11:41:28.883Z,30.00
2019-06-10T11:43:34.420Z,29.80
2019-06-10T11:45:45.714Z,29.90
2019-06-10T11:47:47.346Z,30.00
2019-06-10T11:49:54.955Z,30.10
2019-06-10T11:52:00.078Z,30.20
2019-06-10T11:54:06.093Z,30.40
2019-06-10T11:56:13.031Z,30.50
2019-06-10T11:58:18.822Z,30.70
2019-06-10T12:00:26.276Z,30.70
2019-06-10T12:02:32.930Z,30.60
2019-06-10T12:04:39.036Z,30.40
2019-06-10T12:06:44.536Z,30.40
2019-06-10T12:08:54.082Z,30.40
2019-06-10T12:11:00.459Z,30.40
2019-06-10T12:13:07.260Z,30.50
2019-06-10T12:15:13.863Z,30.50
2019-06-10T12:17:34.725Z,30.50
2019-06-10T12:19:26.588Z,30.40
2019-06-10T12:21:33.089Z,30.30
2019-06-10T12:23:38.826Z,30.40
2019-06-10T12:25:47.793Z,30.20
2019-06-10T12:27:55.233Z,30.20
2019-06-10T12:29:59.948Z,30.20
2019-06-10T12:32:07.504Z,30.20
2019-06-10T12:34:13.065Z,30.40
2019-06-10T12:36:18.602Z,30.40
2019-06-10T12:38:24.149Z,30.50
2019-06-10T12:40:29.863Z,30.60
2019-06-10T12:42:35.387Z,30.60
2019-06-10T12:44:42.900Z,30.60
2019-06-10T12:46:48.100Z,30.70
2019-06-10T12:48:57.562Z,30.60
2019-06-10T12:51:05.729Z,30.60
2019-06-10T12:53:08.116Z,30.60
2019-06-10T12:55:14.013Z,30.50
2019-06-10T12:57:19.548Z,30.40
2019-06-10T12:59:25.086Z,30.40
2019-06-10T13:01:32.996Z,30.40
2019-06-10T13:03:37.883Z,30.40
2019-06-10T13:05:44.116Z,30.40
2019-06-10T13:07:50.908Z,30.40
2019-06-10T13:09:57.807Z,30.40
2019-06-10T13:12:04.070Z,30.40
2019-06-10T13:14:09.662Z,30.40
2019-06-10T13:16:16.153Z,30.40
2019-06-10T13:18:23.886Z,30.30
2019-06-10T13:20:28.972Z,30.30
2019-06-10T13:22:34.504Z,30.20
2019-06-10T13:24:42.212Z,30.20
2019-06-10T13:26:47.225Z,30.20
2019-06-10T13:28:53.723Z,30.20
2019-06-10T13:30:59.268Z,30.30
2019-06-10T13:33:10.423Z,30.40
2019-06-10T13:35:12.587Z,30.30
2019-06-10T13:37:18.234Z,30.20
2019-06-10T13:39:26.887Z,30.20
2019-06-10T13:41:33.295Z,30.10
2019-06-10T13:43:38.054Z,30.10
2019-06-10T13:45:43.716Z,30.10
2019-06-10T13:47:49.234Z,30.10
2019-06-10T13:50:09.293Z,30.10
2019-06-10T13:52:16.824Z,30.10
2019-06-10T13:54:22.563Z,30.10
2019-06-10T13:56:42.962Z,30.10
2019-06-10T13:58:36.281Z,30.10
2019-06-10T14:00:46.287Z,30.00
2019-06-10T14:02:49.106Z,30.00
2019-06-10T14:04:54.621Z,29.90
2019-06-10T14:07:01.501Z,29.80
2019-06-10T14:09:10.062Z,29.80
2019-06-10T14:11:14.468Z,29.80
2019-06-10T14:13:20.077Z,29.70
2019-06-10T14:15:25.608Z,29.70
2019-06-10T14:17:32.880Z,29.60
2019-06-10T14:19:38.278Z,29.50
2019-06-10T14:21:44.007Z,29.50
2019-06-10T14:23:49.599Z,29.50
2019-06-10T14:25:55.116Z,29.50
2019-06-10T14:28:03.203Z,29.60
2019-06-10T14:30:09.578Z,29.60
2019-06-10T14:32:15.781Z,29.60
2019-06-10T14:34:22.515Z,29.60
2019-06-10T14:36:28.275Z,29.50
2019-06-10T14:38:33.805Z,29.50
2019-06-10T14:40:39.304Z,29.60
2019-06-10T14:42:44.812Z,29.60
2019-06-10T14:44:52.532Z,29.60
2019-06-10T14:46:57.536Z,29.50
2019-06-10T14:49:03.129Z,29.50
2019-06-10T14:51:08.882Z,29.40
2019-06-10T14:53:16.801Z,29.30
2019-06-10T14:55:23.226Z,29.30
2019-06-10T14:57:28.881Z,29.20
2019-06-10T14:59:34.405Z,29.20
2019-06-10T15:01:39.931Z,29.20
2019-06-10T15:03:45.457Z,29.10
2019-06-10T15:05:52.917Z,29.10
2019-06-10T15:07:58.265Z,29.10
2019-06-10T15:10:05.362Z,29.10
2019-06-10T15:12:11.667Z,29.20
2019-06-10T15:14:18.000Z,29.20
2019-06-10T15:16:23.934Z,29.20
2019-06-10T15:18:29.529Z,29.20
2019-06-10T15:20:35.111Z,29.20
2019-06-10T15:22:42.998Z,29.20
2019-06-10T15:24:47.927Z,29.20
2019-06-10T15:27:09.128Z,29.30
2019-06-10T15:29:02.786Z,29.20
2019-06-10T15:31:08.245Z,29.30
2019-06-10T15:33:16.589Z,29.20
2019-06-10T15:35:23.981Z,29.30
2019-06-10T15:37:29.038Z,29.30
2019-06-10T15:39:34.632Z,29.20
2019-06-10T15:41:42.895Z,29.30
2019-06-10T15:43:49.597Z,29.20
2019-06-10T15:45:55.149Z,29.20
2019-06-10T15:48:02.533Z,29.20
2019-06-10T15:50:08.257Z,29.20
2019-06-10T15:52:17.154Z,29.20
2019-06-10T15:54:25.311Z,29.30
2019-06-10T15:56:44.689Z,29.30
2019-06-10T15:58:36.281Z,29.20
2019-06-10T16:00:42.591Z,29.10
2019-06-10T16:02:48.260Z,29.00
2019-06-10T16:04:53.792Z,28.90
2019-06-10T16:06:59.319Z,28.90
2019-06-10T16:09:07.318Z,28.80
2019-06-10T16:11:16.300Z,28.80
2019-06-10T16:13:21.358Z,28.80
2019-06-10T16:15:27.453Z,28.80
2019-06-10T16:17:34.568Z,28.70
2019-06-10T16:19:40.124Z,28.70
2019-06-10T16:21:45.904Z,28.80
2019-06-10T16:23:53.339Z,28.80
2019-06-10T16:25:58.584Z,28.80
2019-06-10T16:28:04.174Z,28.80
2019-06-10T16:30:10.271Z,28.80
2019-06-10T16:32:16.356Z,28.80
2019-06-10T16:34:25.044Z,28.80
2019-06-10T16:36:32.025Z,28.80
2019-06-10T16:38:37.085Z,28.70
2019-06-10T16:40:43.171Z,28.80
2019-06-10T16:42:48.776Z,28.70
2019-06-10T16:44:54.317Z,28.70
2019-06-10T16:46:59.865Z,28.70
2019-06-10T16:49:05.568Z,28.70
2019-06-10T16:51:13.314Z,28.70
2019-06-10T16:53:19.879Z,28.70
2019-06-10T16:55:27.298Z,28.70
2019-06-10T16:57:33.410Z,28.70
2019-06-10T16:59:39.164Z,28.60
2019-06-10T17:01:44.840Z,28.60
2019-06-10T17:03:52.449Z,28.60
2019-06-10T17:05:57.520Z,28.60
2019-06-10T17:08:03.353Z,28.60
2019-06-10T17:10:12.550Z,28.60
2019-06-10T17:12:17.791Z,28.60
2019-06-10T17:14:25.991Z,28.60
2019-06-10T17:16:30.603Z,28.50
2019-06-10T17:18:36.132Z,28.50
2019-06-10T17:20:43.030Z,28.50
2019-06-10T17:22:48.649Z,28.50
2019-06-10T17:24:54.167Z,28.40
2019-06-10T17:27:02.465Z,28.40
2019-06-10T17:29:07.040Z,28.30
2019-06-10T17:31:12.657Z,28.30
2019-06-10T17:33:18.378Z,28.20
2019-06-10T17:35:24.146Z,28.30
2019-06-10T17:37:31.279Z,28.20
2019-06-10T17:39:36.903Z,28.10
2019-06-10T17:41:42.839Z,28.00
2019-06-10T17:43:48.408Z,27.80
2019-06-10T17:45:55.097Z,27.80
2019-06-10T17:48:02.965Z,27.70
2019-06-10T17:50:08.908Z,27.70
2019-06-10T17:52:14.542Z,27.70
2019-06-10T17:54:22.083Z,27.60
2019-06-10T17:56:28.228Z,27.60
2019-06-10T17:58:50.294Z,27.50
2019-06-10T18:00:42.231Z,27.50
2019-06-10T18:02:47.869Z,27.50
2019-06-10T18:04:53.430Z,27.40
2019-06-10T18:06:58.969Z,27.40
2019-06-10T18:09:06.289Z,27.30
2019-06-10T18:11:12.845Z,27.20
2019-06-10T18:13:18.579Z,27.10
2019-06-10T18:15:24.192Z,27.10
2019-06-10T18:17:31.172Z,27.00
2019-06-10T18:19:37.562Z,26.90
2019-06-10T18:21:43.993Z,26.90
2019-06-10T18:23:49.616Z,26.80
2019-06-10T18:25:55.265Z,26.80
2019-06-10T18:28:02.794Z,26.80
2019-06-10T18:30:11.500Z,26.70
2019-06-10T18:32:15.885Z,26.60
2019-06-10T18:34:22.650Z,26.60
2019-06-10T18:36:28.497Z,26.50
2019-06-10T18:38:36.803Z,26.40
2019-06-10T18:40:42.867Z,26.30
2019-06-10T18:42:48.540Z,26.30
2019-06-10T18:44:54.058Z,26.10
2019-06-10T18:47:02.806Z,26.10
2019-06-10T18:49:07.844Z,26.00
2019-06-10T18:51:13.356Z,25.90
2019-06-10T18:53:18.896Z,25.90
2019-06-10T18:55:24.613Z,25.80
2019-06-10T18:57:30.639Z,25.70
2019-06-10T18:59:38.317Z,25.80
2019-06-10T19:01:44.216Z,25.70
2019-06-10T19:03:49.745Z,25.50
2019-06-10T19:05:55.422Z,25.50
2019-06-10T19:08:02.450Z,25.40
2019-06-10T19:10:09.114Z,25.30
2019-06-10T19:12:14.674Z,25.20
2019-06-10T19:14:20.233Z,25.30
2019-06-10T19:16:25.765Z,25.20
2019-06-10T19:18:31.881Z,25.10
2019-06-10T19:20:39.178Z,25.10
2019-06-10T19:22:44.767Z,25.10
2019-06-10T19:24:52.819Z,25.00
2019-06-10T19:27:01.330Z,25.00
2019-06-10T19:29:04.804Z,24.90
2019-06-10T19:31:10.352Z,24.80
2019-06-10T19:33:15.944Z,24.80
2019-06-10T19:35:22.373Z,24.80
2019-06-10T19:37:28.018Z,24.70
2019-06-10T19:39:40.301Z,24.70
2019-06-10T19:41:46.641Z,24.60
2019-06-10T19:43:47.976Z,24.50
2019-06-10T19:45:53.652Z,24.50
2019-06-10T19:47:59.181Z,24.40
2019-06-10T19:50:07.246Z,24.40
2019-06-10T19:52:13.023Z,24.40
2019-06-10T19:54:18.580Z,24.30
2019-06-10T19:56:26.390Z,24.20
2019-06-10T19:58:32.309Z,24.20
2019-06-10T20:00:39.214Z,24.20
2019-06-10T20:02:46.911Z,24.20
2019-06-10T20:04:52.778Z,24.10
2019-06-10T20:06:58.464Z,23.90
2019-06-10T20:09:08.577Z,23.90
2019-06-10T20:11:14.222Z,23.90
2019-06-10T20:13:19.836Z,23.90
2019-06-10T20:15:25.918Z,23.90
2019-06-10T20:17:32.781Z,23.90
2019-06-10T20:19:38.399Z,23.80
2019-06-10T20:21:46.506Z,23.90
2019-06-10T20:23:53.060Z,23.90
2019-06-10T20:25:58.301Z,24.00
2019-06-10T20:28:03.929Z,24.00
2019-06-10T20:30:24.151Z,23.90
2019-06-10T20:32:22.568Z,23.90
2019-06-10T20:34:27.525Z,23.80
2019-06-10T20:36:33.508Z,23.70
2019-06-10T20:38:40.055Z,23.70
2019-06-10T20:40:46.038Z,23.60
2019-06-10T20:42:52.746Z,23.60
2019-06-10T20:44:58.267Z,23.50
2019-06-10T20:47:03.977Z,23.50
2019-06-10T20:49:13.371Z,23.50
2019-06-10T20:51:17.811Z,23.60
2019-06-10T20:53:23.365Z,23.50
2019-06-10T20:55:40.534Z,23.60
2019-06-10T20:57:50.068Z,23.60
2019-06-10T20:59:45.246Z,23.90
2019-06-10T21:01:51.404Z,23.90
2019-06-10T21:03:57.709Z,24.10
2019-06-10T21:06:03.796Z,24.20
2019-06-10T21:08:09.362Z,24.20
2019-06-10T21:10:17.996Z,24.20
2019-06-10T21:12:23.520Z,24.30
2019-06-10T21:14:29.157Z,24.40
2019-06-10T21:16:34.710Z,24.30
2019-06-10T21:18:40.330Z,24.30
2019-06-10T21:20:49.240Z,24.30
2019-06-10T21:22:53.620Z,24.30
2019-06-10T21:24:59.244Z,24.20
2019-06-10T21:27:05.860Z,24.20
2019-06-10T21:29:12.851Z,24.00
2019-06-10T21:31:18.647Z,24.00
2019-06-10T21:33:24.200Z,23.80
2019-06-10T21:35:29.744Z,23.70
2019-06-10T21:37:35.297Z,23.60
2019-06-10T21:39:43.780Z,23.50
2019-06-10T21:41:48.256Z,23.50
2019-06-10T21:43:59.145Z,23.40
2019-06-10T21:46:03.367Z,23.40
2019-06-10T21:48:08.252Z,23.20
2019-06-10T21:50:14.161Z,23.00
2019-06-10T21:52:19.726Z,22.90
2019-06-10T21:54:25.380Z,22.80
2019-06-10T21:56:32.786Z,22.90
2019-06-10T21:58:38.103Z,22.80
2019-06-10T22:01:03.424Z,22.70
2019-06-10T22:02:58.698Z,22.60
2019-06-10T22:05:06.580Z,22.50
2019-06-10T22:07:12.121Z,22.40
2019-06-10T22:09:18.761Z,22.40
2019-06-10T22:11:24.360Z,22.40
2019-06-10T22:13:29.919Z,22.50
2019-06-10T22:15:35.491Z,22.40
2019-06-10T22:17:42.569Z,22.40
2019-06-10T22:19:48.554Z,22.30
2019-06-10T22:21:56.480Z,22.20
2019-06-10T22:24:02.207Z,22.20
2019-06-10T22:26:08.160Z,22.20
2019-06-10T22:28:15.060Z,22.30
2019-06-10T22:30:22.730Z,22.30
2019-06-10T22:32:27.892Z,22.50
2019-06-10T22:34:33.414Z,22.70
2019-06-10T22:36:38.945Z,22.80
2019-06-10T22:38:45.750Z,22.90
2019-06-10T22:40:53.640Z,23.00
2019-06-10T22:42:59.532Z,22.80
2019-06-10T22:45:06.895Z,22.70
2019-06-10T22:47:12.440Z,22.50
2019-06-10T22:49:17.992Z,22.70
2019-06-10T22:51:23.597Z,22.80
2019-06-10T22:53:29.140Z,22.90
2019-06-10T22:55:34.759Z,23.00
2019-06-10T22:57:43.740Z,22.90
2019-06-10T22:59:48.592Z,22.90
2019-06-10T23:01:56.286Z,23.00
2019-06-10T23:04:03.881Z,22.80
2019-06-10T23:06:08.605Z,22.70
2019-06-10T23:08:14.183Z,22.70
2019-06-10T23:10:19.853Z,22.70
2019-06-10T23:12:25.481Z,22.50
2019-06-10T23:14:33.067Z,22.50
2019-06-10T23:16:38.186Z,22.40
2019-06-10T23:18:43.721Z,22.50
2019-06-10T23:20:49.340Z,22.70
2019-06-10T23:22:57.164Z,22.70
2019-06-10T23:25:02.808Z,22.70
2019-06-10T23:27:09.246Z,22.60
2019-06-10T23:29:14.775Z,22.60
2019-06-10T23:31:20.308Z,22.70
2019-06-10T23:33:25.827Z,22.70
2019-06-10T23:35:32.334Z,22.70
2019-06-10T23:37:38.021Z,22.80
2019-06-10T23:39:43.545Z,22.80
2019-06-10T23:41:49.076Z,22.80
2019-06-10T23:43:55.049Z,22.80
2019-06-10T23:46:01.962Z,22.80
2019-06-10T23:48:07.924Z,22.90
2019-06-10T23:50:13.525Z,22.90
2019-06-10T23:52:19.043Z,22.90
2019-06-10T23:54:24.597Z,22.80
2019-06-10T23:56:32.490Z,22.70
2019-06-10T23:58:37.418Z,22.70
